createdAt,value
2017-11-14T00:00:41.204Z,46.88
2017-11-14T00:03:08.667Z,46.37
2017-11-14T00:05:36.185Z,43.22
2017-11-14T00:08:03.641Z,45.58
2017-11-14T00:10:31.109Z,40.08
2017-11-14T00:12:59.337Z,39.30
2017-11-14T00:15:26.818Z,35.70
2017-11-14T00:17:54.273Z,36.40
2017-11-14T00:20:21.747Z,41.72
2017-11-14T00:22:49.220Z,33.20
2017-11-14T00:25:17.461Z,39.00
2017-11-14T00:27:44.927Z,38.42
2017-11-14T00:30:13.906Z,45.70
2017-11-14T00:32:41.377Z,35.17
2017-11-14T00:35:08.841Z,35.50
2017-11-14T00:37:36.396Z,43.83
2017-11-14T00:40:04.641Z,38.67
2017-11-14T00:42:32.105Z,33.90
2017-11-14T00:44:59.569Z,37.72
2017-11-14T00:47:27.040Z,40.35
2017-11-14T00:49:54.501Z,44.72
2017-11-14T00:52:21.971Z,37.40
2017-11-14T00:54:50.220Z,44.83
2017-11-14T00:57:17.696Z,41.15
2017-11-14T00:59:45.173Z,45.22
2017-11-14T01:02:13.417Z,40.78
2017-11-14T01:04:40.885Z,50.28
2017-11-14T01:07:08.356Z,52.08
2017-11-14T01:09:36.596Z,46.20
2017-11-14T01:12:04.069Z,43.55
2017-11-14T01:14:31.545Z,45.80
2017-11-14T01:16:59.818Z,44.47
2017-11-14T01:19:28.057Z,49.35
2017-11-14T01:21:55.550Z,58.22
2017-11-14T01:24:23.018Z,55.00
2017-11-14T01:26:51.253Z,61.75
2017-11-14T01:29:18.817Z,52.90
2017-11-14T01:31:46.292Z,51.92
2017-11-14T01:34:13.767Z,59.33
2017-11-14T01:36:42.005Z,52.25
2017-11-14T01:39:09.489Z,57.05
2017-11-14T01:41:36.957Z,60.75
2017-11-14T01:44:05.204Z,61.15
2017-11-14T01:46:32.880Z,53.58
2017-11-14T01:49:00.360Z,69.22
2017-11-14T01:51:28.589Z,59.20
2017-11-14T01:53:56.069Z,57.10
2017-11-14T01:56:23.532Z,56.60
2017-11-14T01:58:51.031Z,64.90
2017-11-14T02:01:18.497Z,63.78
2017-11-14T02:03:45.968Z,70.30
2017-11-14T02:06:13.450Z,81.05
2017-11-14T02:08:40.925Z,66.75
2017-11-14T02:11:08.389Z,59.25
2017-11-14T02:13:36.631Z,70.47
2017-11-14T02:16:04.100Z,59.42
2017-11-14T02:18:31.580Z,56.08
2017-11-14T02:20:59.077Z,66.22
2017-11-14T02:23:26.540Z,79.50
2017-11-14T02:25:59.632Z,75.30
2017-11-14T02:28:27.102Z,82.30
2017-11-14T02:30:54.573Z,73.82
2017-11-14T02:33:22.042Z,101.22
2017-11-14T02:35:49.526Z,77.65
2017-11-14T02:38:17.012Z,85.78
2017-11-14T02:40:44.496Z,82.53
2017-11-14T02:43:11.961Z,98.55
2017-11-14T02:45:39.438Z,79.55
2017-11-14T02:48:06.913Z,75.57
2017-11-14T02:50:35.147Z,69.43
2017-11-14T02:53:02.626Z,90.45
2017-11-14T02:55:30.104Z,59.70
2017-11-14T02:57:58.333Z,64.43
2017-11-14T03:00:25.807Z,64.22
2017-11-14T03:02:53.265Z,69.90
2017-11-14T03:05:20.746Z,77.95
2017-11-14T03:07:48.972Z,71.85
2017-11-14T03:10:16.465Z,80.65
2017-11-14T03:12:43.939Z,75.65
2017-11-14T03:15:12.186Z,76.55
2017-11-14T03:17:39.660Z,71.03
2017-11-14T03:20:07.140Z,70.90
2017-11-14T03:22:34.612Z,83.97
2017-11-14T03:25:02.121Z,79.43
2017-11-14T03:27:29.612Z,75.00
2017-11-14T03:29:57.088Z,65.10
2017-11-14T03:32:24.559Z,64.55
2017-11-14T03:34:52.067Z,61.63
2017-11-14T03:37:20.314Z,59.75
2017-11-14T03:39:47.777Z,64.97
2017-11-14T03:42:15.432Z,67.05
2017-11-14T03:44:42.897Z,59.80
2017-11-14T03:47:10.369Z,54.85
2017-11-14T03:49:37.839Z,53.22
2017-11-14T03:52:06.081Z,50.58
2017-11-14T03:54:33.541Z,47.00
2017-11-14T03:57:01.026Z,51.25
2017-11-14T03:59:29.257Z,48.47
2017-11-14T04:01:56.738Z,59.42
2017-11-14T04:04:24.199Z,65.80
2017-11-14T04:06:51.721Z,55.53
2017-11-14T04:09:19.185Z,53.47
2017-11-14T04:11:46.660Z,56.15
2017-11-14T04:14:14.142Z,47.15
2017-11-14T04:16:41.622Z,53.20
2017-11-14T04:19:09.870Z,56.22
2017-11-14T04:21:37.433Z,59.30
2017-11-14T04:24:04.936Z,57.22
2017-11-14T04:26:32.941Z,62.13
2017-11-14T04:29:00.437Z,59.47
2017-11-14T04:31:28.672Z,61.95
2017-11-14T04:33:56.151Z,65.40
2017-11-14T04:36:23.618Z,57.60
2017-11-14T04:38:51.854Z,69.55
2017-11-14T04:41:19.336Z,63.75
2017-11-14T04:43:46.802Z,64.35
2017-11-14T04:46:14.270Z,75.85
2017-11-14T04:48:42.551Z,64.32
2017-11-14T04:51:10.782Z,65.72
2017-11-14T04:53:38.267Z,57.60
2017-11-14T04:56:05.747Z,55.20
2017-11-14T04:58:33.985Z,67.15
2017-11-14T05:01:01.469Z,72.45
2017-11-14T05:03:29.709Z,72.10
2017-11-14T05:05:57.206Z,74.60
2017-11-14T05:08:24.694Z,54.15
2017-11-14T05:10:52.166Z,66.00
2017-11-14T05:13:19.633Z,61.37
2017-11-14T05:15:47.100Z,71.12
2017-11-14T05:18:14.584Z,61.08
2017-11-14T05:20:42.061Z,52.67
2017-11-14T05:23:10.305Z,49.13
2017-11-14T05:25:37.802Z,65.62
2017-11-14T05:28:06.061Z,57.28
2017-11-14T05:30:34.322Z,58.47
2017-11-14T05:33:01.793Z,52.67
2017-11-14T05:35:30.033Z,58.83
2017-11-14T05:37:57.518Z,78.22
2017-11-14T05:40:25.074Z,64.87
2017-11-14T05:42:52.535Z,55.12
2017-11-14T05:45:20.014Z,53.33
2017-11-14T05:47:47.480Z,52.50
2017-11-14T05:50:14.958Z,54.40
2017-11-14T05:52:42.429Z,65.75
2017-11-14T05:55:09.909Z,51.42
2017-11-14T05:57:37.389Z,74.62
2017-11-14T06:00:05.632Z,56.33
2017-11-14T06:02:33.097Z,55.95
2017-11-14T06:05:00.601Z,68.45
2017-11-14T06:07:28.845Z,68.90
2017-11-14T06:09:57.829Z,60.10
2017-11-14T06:12:25.305Z,60.28
2017-11-14T06:14:53.544Z,58.55
2017-11-14T06:17:21.024Z,59.53
2017-11-14T06:19:48.522Z,63.97
2017-11-14T06:22:15.981Z,59.90
2017-11-14T06:24:43.467Z,68.03
2017-11-14T06:27:10.969Z,45.05
2017-11-14T06:29:39.204Z,53.92
2017-11-14T06:32:06.881Z,63.63
2017-11-14T06:34:34.375Z,61.97
2017-11-14T06:37:02.684Z,50.95
2017-11-14T06:39:30.165Z,62.33
2017-11-14T06:41:57.657Z,46.90
2017-11-14T06:44:25.137Z,48.15
2017-11-14T06:46:52.611Z,34.13
2017-11-14T06:49:20.072Z,41.63
2017-11-14T06:51:47.596Z,36.15
2017-11-14T06:54:15.824Z,33.20
2017-11-14T06:56:43.306Z,32.10
2017-11-14T06:59:10.860Z,29.95
2017-11-14T07:01:38.337Z,32.38
2017-11-14T07:04:05.808Z,27.85
2017-11-14T07:06:34.073Z,32.63
2017-11-14T07:09:02.314Z,30.50
2017-11-14T07:11:29.786Z,31.83
2017-11-14T07:13:57.270Z,27.10
2017-11-14T07:16:25.526Z,33.53
2017-11-14T07:18:53.010Z,30.73
2017-11-14T07:21:21.250Z,26.80
2017-11-14T07:23:48.724Z,26.52
2017-11-14T07:26:16.183Z,25.15
2017-11-14T07:28:43.664Z,27.42
2017-11-14T07:31:11.902Z,24.00
2017-11-14T07:33:39.381Z,26.25
2017-11-14T07:36:07.639Z,25.35
2017-11-14T07:38:35.150Z,20.12
2017-11-14T07:41:02.613Z,22.25
2017-11-14T07:43:30.098Z,24.33
2017-11-14T07:45:57.573Z,28.55
2017-11-14T07:48:25.133Z,21.98
2017-11-14T07:50:52.605Z,27.52
2017-11-14T07:53:20.896Z,25.35
2017-11-14T07:55:49.139Z,20.95
2017-11-14T07:58:16.635Z,25.42
2017-11-14T08:00:44.098Z,23.33
2017-11-14T08:03:11.574Z,29.63
2017-11-14T08:05:39.042Z,27.92
2017-11-14T08:08:06.513Z,26.15
2017-11-14T08:10:33.990Z,23.98
2017-11-14T08:13:01.458Z,24.95
2017-11-14T08:15:28.933Z,26.00
2017-11-14T08:17:57.177Z,24.08
2017-11-14T08:20:24.663Z,21.25
2017-11-14T08:22:52.148Z,22.20
2017-11-14T08:25:19.632Z,22.62
2017-11-14T08:27:47.151Z,30.42
2017-11-14T08:30:14.644Z,23.60
2017-11-14T08:32:42.117Z,24.25
2017-11-14T08:35:09.639Z,19.55
2017-11-14T08:37:37.167Z,23.48
2017-11-14T08:40:05.428Z,31.00
2017-11-14T08:42:32.910Z,24.58
2017-11-14T08:45:01.141Z,23.35
2017-11-14T08:47:28.634Z,24.35
2017-11-14T08:49:56.892Z,21.70
2017-11-14T08:52:24.399Z,19.80
2017-11-14T08:54:52.060Z,19.98
2017-11-14T08:57:22.977Z,26.35
2017-11-14T08:59:50.470Z,27.58
2017-11-14T09:02:17.933Z,24.08
2017-11-14T09:04:45.431Z,21.10
2017-11-14T09:07:12.914Z,26.30
2017-11-14T09:09:40.376Z,23.17
2017-11-14T09:12:07.857Z,27.23
2017-11-14T09:14:35.322Z,24.35
2017-11-14T09:17:02.798Z,25.98
2017-11-14T09:19:31.029Z,21.90
2017-11-14T09:21:58.509Z,23.33
2017-11-14T09:24:27.482Z,18.95
2017-11-14T09:26:54.956Z,18.23
2017-11-14T09:29:22.421Z,18.37
2017-11-14T09:31:49.893Z,21.17
2017-11-14T09:34:18.130Z,22.35
2017-11-14T09:36:45.614Z,15.80
2017-11-14T09:39:13.069Z,15.05
2017-11-14T09:41:40.552Z,15.00
2017-11-14T09:44:08.026Z,16.67
2017-11-14T09:46:35.515Z,13.38
2017-11-14T09:49:03.001Z,10.75
2017-11-14T09:51:30.466Z,9.30
2017-11-14T09:53:58.707Z,9.85
2017-11-14T09:56:26.186Z,14.35
2017-11-14T09:58:53.655Z,9.82
2017-11-14T10:01:21.898Z,12.52
2017-11-14T10:03:49.378Z,11.45
2017-11-14T10:06:16.845Z,10.40
2017-11-14T10:08:45.085Z,12.07
2017-11-14T10:11:12.555Z,8.95
2017-11-14T10:13:40.041Z,12.52
2017-11-14T10:16:08.260Z,8.25
2017-11-14T10:18:35.740Z,8.40
2017-11-14T10:21:03.205Z,9.05
2017-11-14T10:23:30.685Z,11.10
2017-11-14T10:25:58.912Z,8.88
2017-11-14T10:28:26.415Z,9.18
2017-11-14T10:30:53.870Z,10.85
2017-11-14T10:33:21.363Z,9.15
2017-11-14T10:35:48.817Z,8.35
2017-11-14T10:38:16.285Z,11.55
2017-11-14T10:40:43.745Z,16.33
2017-11-14T10:43:11.221Z,12.65
2017-11-14T10:45:38.694Z,13.60
2017-11-14T10:48:06.177Z,17.92
2017-11-14T10:50:34.545Z,24.10
2017-11-14T10:53:02.125Z,27.73
2017-11-14T10:55:30.353Z,25.95
2017-11-14T10:57:57.862Z,24.27
2017-11-14T11:00:31.690Z,29.35
2017-11-14T11:02:59.154Z,27.58
2017-11-14T11:05:26.633Z,22.55
2017-11-14T11:07:54.103Z,25.83
2017-11-14T11:10:21.567Z,24.35
2017-11-14T11:12:49.034Z,24.85
2017-11-14T11:15:16.509Z,24.30
2017-11-14T11:17:44.745Z,25.27
2017-11-14T11:20:12.217Z,22.05
2017-11-14T11:22:39.691Z,20.77
2017-11-14T11:25:07.977Z,27.70
2017-11-14T11:27:36.210Z,33.72
2017-11-14T11:30:03.692Z,27.85
2017-11-14T11:32:31.162Z,35.75
2017-11-14T11:34:59.402Z,34.60
2017-11-14T11:37:26.870Z,31.35
2017-11-14T11:39:54.347Z,34.90
2017-11-14T11:42:22.617Z,36.35
2017-11-14T11:44:50.106Z,42.85
2017-11-14T11:47:18.462Z,30.27
2017-11-14T11:49:46.729Z,33.88
2017-11-14T11:52:14.371Z,27.20
2017-11-14T11:54:41.874Z,38.83
2017-11-14T11:57:10.111Z,32.72
2017-11-14T11:59:37.583Z,28.02
2017-11-14T12:02:05.885Z,30.17
2017-11-14T12:04:33.349Z,29.02
2017-11-14T12:07:00.845Z,28.12
2017-11-14T12:09:28.325Z,31.90
2017-11-14T12:11:55.837Z,33.13
2017-11-14T12:14:23.321Z,30.45
2017-11-14T12:16:50.832Z,30.05
2017-11-14T12:19:19.108Z,26.95
2017-11-14T12:21:47.401Z,33.13
2017-11-14T12:24:14.922Z,26.98
2017-11-14T12:26:42.414Z,31.45
2017-11-14T12:29:09.938Z,28.75
2017-11-14T12:31:37.419Z,28.45
2017-11-14T12:34:05.657Z,24.70
2017-11-14T12:36:33.898Z,26.48
2017-11-14T12:39:01.408Z,25.90
2017-11-14T12:41:28.891Z,28.58
2017-11-14T12:43:56.344Z,24.90
2017-11-14T12:46:23.821Z,28.50
2017-11-14T12:48:51.291Z,46.00
2017-11-14T12:51:18.770Z,27.87
2017-11-14T12:53:46.237Z,25.05
2017-11-14T12:56:13.713Z,20.20
2017-11-14T12:58:41.979Z,18.73
2017-11-14T13:01:09.449Z,25.73
2017-11-14T13:03:37.689Z,25.40
2017-11-14T13:06:05.156Z,24.30
2017-11-14T13:08:32.628Z,23.90
2017-11-14T13:11:00.104Z,22.27
2017-11-14T13:13:28.340Z,23.48
2017-11-14T13:15:55.820Z,25.75
2017-11-14T13:18:23.331Z,23.15
2017-11-14T13:20:51.917Z,20.80
2017-11-14T13:23:19.474Z,22.92
2017-11-14T13:25:46.986Z,27.80
2017-11-14T13:28:15.233Z,24.85
2017-11-14T13:30:42.729Z,20.50
2017-11-14T13:33:10.999Z,19.12
2017-11-14T13:35:38.458Z,24.42
2017-11-14T13:38:06.736Z,23.83
2017-11-14T13:40:34.965Z,25.80
2017-11-14T13:43:02.457Z,21.87
2017-11-14T13:45:29.946Z,27.40
2017-11-14T13:47:57.498Z,20.30
2017-11-14T13:50:25.849Z,20.15
2017-11-14T13:52:53.333Z,20.37
2017-11-14T13:55:21.599Z,21.65
2017-11-14T13:57:49.919Z,21.15
2017-11-14T14:00:17.494Z,24.67
2017-11-14T14:02:44.978Z,21.77
2017-11-14T14:05:12.490Z,21.65
2017-11-14T14:07:39.979Z,24.17
2017-11-14T14:10:07.480Z,23.17
2017-11-14T14:12:35.717Z,29.65
2017-11-14T14:15:03.220Z,21.12
2017-11-14T14:17:30.811Z,24.83
2017-11-14T14:19:58.321Z,25.85
2017-11-14T14:22:26.551Z,24.77
2017-11-14T14:24:54.122Z,29.50
2017-11-14T14:27:21.631Z,22.23
2017-11-14T14:29:49.865Z,18.60
2017-11-14T14:32:17.364Z,22.17
2017-11-14T14:34:44.849Z,28.87
2017-11-14T14:37:12.335Z,27.73
2017-11-14T14:39:39.802Z,25.60
2017-11-14T14:42:07.265Z,20.90
2017-11-14T14:44:34.737Z,24.35
2017-11-14T14:47:03.000Z,27.55
2017-11-14T14:49:30.487Z,30.92
2017-11-14T14:51:57.978Z,36.25
2017-11-14T14:54:25.463Z,39.25
2017-11-14T14:56:52.946Z,29.87
2017-11-14T14:59:21.176Z,37.15
2017-11-14T15:01:48.636Z,30.85
2017-11-14T15:04:16.107Z,29.15
2017-11-14T15:06:43.581Z,29.52
2017-11-14T15:09:11.044Z,33.33
2017-11-14T15:11:39.282Z,38.00
2017-11-14T15:14:06.775Z,32.67
2017-11-14T15:16:34.250Z,30.77
2017-11-14T15:19:02.473Z,42.90
2017-11-14T15:21:29.944Z,41.47
2017-11-14T15:23:57.400Z,38.58
2017-11-14T15:26:24.864Z,43.50
2017-11-14T15:28:52.331Z,39.17
2017-11-14T15:31:19.848Z,31.27
2017-11-14T15:33:47.338Z,39.35
2017-11-14T15:36:15.625Z,35.22
2017-11-14T15:38:43.197Z,41.50
2017-11-14T15:41:11.438Z,41.25
2017-11-14T15:43:38.928Z,42.42
2017-11-14T15:46:07.293Z,41.92
2017-11-14T15:48:34.772Z,44.80
2017-11-14T15:51:03.015Z,63.50
2017-11-14T15:53:30.485Z,55.30
2017-11-14T15:55:57.977Z,60.42
2017-11-14T15:58:25.501Z,55.58
2017-11-14T16:00:53.750Z,46.35
2017-11-14T16:03:21.229Z,53.60
2017-11-14T16:05:48.701Z,56.55
2017-11-14T16:08:16.240Z,48.33
2017-11-14T16:10:43.707Z,62.33
2017-11-14T16:13:11.172Z,44.58
2017-11-14T16:15:38.642Z,50.78
2017-11-14T16:18:06.995Z,51.45
2017-11-14T16:20:34.461Z,45.88
2017-11-14T16:23:01.937Z,57.67
2017-11-14T16:25:30.164Z,44.65
2017-11-14T16:27:57.712Z,62.58
2017-11-14T16:30:25.241Z,42.20
2017-11-14T16:32:54.501Z,53.95
2017-11-14T16:35:21.969Z,44.17
2017-11-14T16:37:49.445Z,45.97
2017-11-14T16:40:17.676Z,43.05
2017-11-14T16:42:45.149Z,79.35
2017-11-14T16:45:12.621Z,65.70
2017-11-14T16:47:40.115Z,48.15
2017-11-14T16:50:07.597Z,66.87
2017-11-14T16:52:35.105Z,56.50
2017-11-14T16:55:03.372Z,62.50
2017-11-14T16:57:30.841Z,51.03
2017-11-14T16:59:59.097Z,65.32
2017-11-14T17:02:26.576Z,52.15
2017-11-14T17:04:54.823Z,66.32
2017-11-14T17:07:22.301Z,54.65
2017-11-14T17:09:50.106Z,52.38
2017-11-14T17:12:17.974Z,46.78
2017-11-14T17:14:45.841Z,79.32
2017-11-14T17:17:13.708Z,65.20
2017-11-14T17:19:42.393Z,53.03
2017-11-14T17:22:10.465Z,51.40
2017-11-14T17:24:39.254Z,65.05
2017-11-14T17:27:07.939Z,43.00
2017-11-14T17:29:38.188Z,79.22
2017-11-14T17:32:06.139Z,98.68
2017-11-14T17:34:33.932Z,60.97
2017-11-14T17:37:01.719Z,93.37
2017-11-14T17:39:29.199Z,105.63
2017-11-14T17:41:57.492Z,57.70
2017-11-14T17:44:25.342Z,39.72
2017-11-14T17:46:53.301Z,96.87
2017-11-14T17:49:21.099Z,88.70
2017-11-14T17:51:48.621Z,120.95
2017-11-14T17:54:16.863Z,89.62
2017-11-14T17:56:44.720Z,77.07
2017-11-14T17:59:12.670Z,183.87
2017-11-14T18:01:41.375Z,184.57
2017-11-14T18:04:09.219Z,67.75
2017-11-14T18:06:37.711Z,150.38
2017-11-14T18:09:06.489Z,138.32
2017-11-14T18:11:34.766Z,114.82
2017-11-14T18:14:04.065Z,84.05
2017-11-14T18:16:33.367Z,72.68
2017-11-14T18:19:00.884Z,105.25
2017-11-14T18:21:29.406Z,122.93
2017-11-14T18:23:56.942Z,75.45
2017-11-14T18:26:25.228Z,83.20
2017-11-14T18:28:52.699Z,82.62
2017-11-14T18:31:20.466Z,73.55
2017-11-14T18:33:48.198Z,80.00
2017-11-14T18:36:18.063Z,68.25
2017-11-14T18:38:45.794Z,72.35
2017-11-14T18:41:13.265Z,72.87
2017-11-14T18:43:40.782Z,70.30
2017-11-14T18:46:08.344Z,64.95
2017-11-14T18:48:36.639Z,60.53
2017-11-14T18:51:04.111Z,75.12
2017-11-14T18:53:31.641Z,64.30
2017-11-14T18:55:59.975Z,64.05
2017-11-14T18:58:27.469Z,59.33
2017-11-14T19:00:54.945Z,50.83
2017-11-14T19:03:23.187Z,51.35
2017-11-14T19:05:50.657Z,45.67
2017-11-14T19:08:18.504Z,48.33
2017-11-14T19:11:04.912Z,54.08
2017-11-14T19:13:32.416Z,52.75
2017-11-14T19:16:01.923Z,50.33
2017-11-14T19:18:30.300Z,52.10
2017-11-14T19:20:57.793Z,57.28
2017-11-14T19:23:25.260Z,54.67
2017-11-14T19:25:52.730Z,52.00
2017-11-14T19:28:20.207Z,54.28
2017-11-14T19:30:48.471Z,51.45
2017-11-14T19:33:15.955Z,53.65
2017-11-14T19:35:44.563Z,47.33
2017-11-14T19:38:12.454Z,54.50
2017-11-14T19:40:40.394Z,49.15
2017-11-14T19:43:08.263Z,52.17
2017-11-14T19:45:35.773Z,65.90
2017-11-14T19:48:05.362Z,60.28
2017-11-14T19:50:33.309Z,68.20
2017-11-14T19:53:00.829Z,59.72
2017-11-14T19:55:31.209Z,56.53
2017-11-14T20:00:40.691Z,65.18
2017-11-14T20:03:08.491Z,56.47
2017-11-14T20:05:36.120Z,60.22
2017-11-14T20:08:05.221Z,59.10
2017-11-14T20:10:38.158Z,52.45
2017-11-14T20:13:06.984Z,60.72
2017-11-14T20:15:34.724Z,53.65
2017-11-14T20:18:03.024Z,50.08
2017-11-14T20:20:35.504Z,54.58
2017-11-14T20:23:07.941Z,48.67
2017-11-14T20:25:35.438Z,55.10
2017-11-14T20:28:02.896Z,51.67
2017-11-14T20:30:31.775Z,49.67
2017-11-14T20:33:04.058Z,51.33
2017-11-14T20:35:33.121Z,57.17
2017-11-14T20:38:01.282Z,47.25
2017-11-14T20:40:29.032Z,53.10
2017-11-14T20:42:59.154Z,55.30
2017-11-14T20:45:30.193Z,46.45
2017-11-14T20:47:57.661Z,53.65
2017-11-14T20:50:25.139Z,48.72
2017-11-14T20:52:52.628Z,50.72
2017-11-14T20:55:20.130Z,51.58
2017-11-14T20:57:47.662Z,44.50
2017-11-14T21:00:15.909Z,48.70
2017-11-14T21:02:43.745Z,47.40
2017-11-14T21:05:11.348Z,42.60
2017-11-14T21:07:50.126Z,53.83
2017-11-14T21:10:19.088Z,54.97
2017-11-14T21:12:46.547Z,47.97
2017-11-14T21:15:14.003Z,45.45
2017-11-14T21:17:41.787Z,46.03
2017-11-14T21:20:09.271Z,47.47
2017-11-14T21:22:36.752Z,48.03
2017-11-14T21:25:04.368Z,49.75
2017-11-14T21:27:31.837Z,49.78
2017-11-14T21:29:59.704Z,44.70
2017-11-14T21:32:27.984Z,52.40
2017-11-14T21:35:02.556Z,44.08
2017-11-14T21:37:30.913Z,47.95
2017-11-14T21:39:59.913Z,48.28
2017-11-14T21:42:29.783Z,45.55
2017-11-14T21:44:57.266Z,47.28
2017-11-14T21:47:24.732Z,46.92
2017-11-14T21:50:02.125Z,46.45
2017-11-14T21:52:29.735Z,43.15
2017-11-14T21:54:57.220Z,42.72
2017-11-14T21:57:37.658Z,45.00
2017-11-14T22:00:05.155Z,42.92
2017-11-14T22:02:32.906Z,46.58
2017-11-14T22:05:01.162Z,53.35
2017-11-14T22:07:29.966Z,51.45
2017-11-14T22:10:15.119Z,55.05
2017-11-14T22:12:42.657Z,48.05
2017-11-14T22:18:05.057Z,50.90
2017-11-14T22:20:36.800Z,72.90
2017-11-14T22:23:04.821Z,48.78
2017-11-14T22:25:34.139Z,45.47
2017-11-14T22:28:04.836Z,45.85
2017-11-14T22:30:32.348Z,47.08
2017-11-14T22:33:00.185Z,51.88
2017-11-14T22:35:30.529Z,52.50
2017-11-14T22:41:02.336Z,45.33
2017-11-14T22:43:31.108Z,48.40
2017-11-14T22:46:00.692Z,51.47
2017-11-14T22:48:44.485Z,58.10
2017-11-14T22:51:12.028Z,55.10
2017-11-14T22:53:39.729Z,53.10
2017-11-14T22:56:07.944Z,50.63
2017-11-14T22:58:43.073Z,48.03
2017-11-14T23:01:11.495Z,47.83
2017-11-14T23:03:38.973Z,51.58
2017-11-14T23:06:06.441Z,54.38
2017-11-14T23:08:33.924Z,49.10
2017-11-14T23:11:02.177Z,48.15
2017-11-14T23:13:29.662Z,50.63
2017-11-14T23:15:57.938Z,48.83
2017-11-14T23:18:26.237Z,49.80
2017-11-14T23:20:53.737Z,53.30
2017-11-14T23:23:21.257Z,57.55
2017-11-14T23:25:48.730Z,49.15
2017-11-14T23:28:16.233Z,58.08
2017-11-14T23:30:44.482Z,45.58
2017-11-14T23:33:12.396Z,48.15
2017-11-14T23:35:39.867Z,48.28
2017-11-14T23:38:07.331Z,45.78
2017-11-14T23:40:34.843Z,53.03
2017-11-14T23:43:02.306Z,50.10
2017-11-14T23:45:30.549Z,48.67
2017-11-14T23:47:58.022Z,46.85
2017-11-14T23:50:25.503Z,48.67
2017-11-14T23:52:53.745Z,45.15
2017-11-14T23:55:21.215Z,47.30
2017-11-14T23:57:49.271Z,48.50
